Watertown, OH (45787)

12:47 PM EST on February 13, 2016 (GMT -0500)
WISP in Watertown Ohio | | Change Station
CLOSE
Current Station
Personal Weather Station
Location: Waterford, OH
Elevation: 774 ft
Nearby Weather Stations

Elev 774 ft 39.50 °N, 81.65 °W | Updated 12 minutes ago

Clear
Clear
13.8 °F
Feels Like 6 °F
N
5.0
Wind Variable Wind from NW
Gusts 8.0 mph

Today
High -- | Low -- °F
--% Chance of Precip.
Yesterday
High -- | Low -- °F
Precip. -- in
Pressure 30.55 in
Visibility 10.0 miles
Clouds Clear
Windchill 6 °F
Dew Point -4 °F
Humidity 46%
Rainfall 0.00 in
Snow Depth Not available.
7:21 AM 6:00 PM
Waxing Crescent, 32% visible
METAR KPKB 131653Z 30010G16KT 10SM CLR M11/M22 A3050 RMK AO2 SLP343 T11061217
Pressure 30.55 in
Visibility 10.0 miles
Clouds Clear
Windchill 6 °F
Dew Point -4 °F
Humidity 46%
Rainfall 0.00 in
Snow Depth Not available.
7:21 AM 6:00 PM
Waxing Crescent, 32% visible
METAR KPKB 131653Z 30010G16KT 10SM CLR M11/M22 A3050 RMK AO2 SLP343 T11061217

10-Day Weather Forecast

Almanac

Astronomy

Feb. 13, 2016 Rise Set
Actual Time
Civil Twilight
Nautical Twilight
Astronomical Twilight
Moon
Length of Visible Light
Length of Day
Tomorrow will be .
, % of the Moon is Illuminated

Today's Extremes

State Highs State Lows

Community

WunderPhotos

Upload Photos

1,892,623 photos uploaded!

WunderBlog® & News

Nearby

Air Quality

  Air Quality AQ Index Pollutant
Not available.

Snow Depth

Station Depth Elevation

Earthquake Activity

City Distance Mag. Time & Date
Minimum magnitude displayed is 2.5.

Coastal Water Temperatures

Place Temperature

Stations

Nearby Weather Stations

Station Location Temp. Windchill Dew Point Humidity Wind Precip. Elev Updated Type
                   

Watches & Warnings

There are currently no watches in effect.